createdAt,value
2022-10-07T00:00:58.909Z,12.13
2022-10-07T00:01:58.961Z,12.06
2022-10-07T00:02:59.200Z,12.10
2022-10-07T00:03:59.193Z,12.15
2022-10-07T00:04:59.351Z,12.03
2022-10-07T00:05:59.519Z,12.07
2022-10-07T00:06:59.582Z,12.09
2022-10-07T00:07:59.943Z,12.10
2022-10-07T00:08:59.956Z,12.02
2022-10-07T00:10:00.125Z,12.10
2022-10-07T00:11:00.182Z,12.07
2022-10-07T00:12:00.326Z,11.99
2022-10-07T00:13:00.603Z,11.97
2022-10-07T00:14:00.632Z,11.97
2022-10-07T00:15:00.791Z,12.02
2022-10-07T00:16:00.981Z,11.99
2022-10-07T00:17:01.146Z,12.03
2022-10-07T00:18:01.220Z,12.00
2022-10-07T00:19:01.411Z,12.00
2022-10-07T00:20:01.570Z,12.06
2022-10-07T00:21:01.698Z,12.03
2022-10-07T00:22:01.819Z,12.07
2022-10-07T00:23:01.970Z,12.00
2022-10-07T00:24:02.318Z,12.02
2022-10-07T00:25:02.258Z,12.04
2022-10-07T00:26:02.431Z,12.03
2022-10-07T00:27:02.538Z,12.04
2022-10-07T00:28:02.679Z,11.99
2022-10-07T00:29:02.836Z,12.04
2022-10-07T00:30:02.922Z,12.02
2022-10-07T00:31:03.173Z,12.03
2022-10-07T00:32:03.437Z,11.95
2022-10-07T00:33:03.344Z,12.00
2022-10-07T00:34:03.669Z,11.87
2022-10-07T00:35:03.630Z,11.91
2022-10-07T00:36:03.939Z,11.99
2022-10-07T00:37:03.949Z,11.99
2022-10-07T00:38:04.154Z,11.94
2022-10-07T00:39:04.380Z,11.94
2022-10-07T00:40:04.363Z,11.88
2022-10-07T00:41:04.582Z,11.87
2022-10-07T00:42:04.694Z,11.90
2022-10-07T00:43:04.791Z,11.84
2022-10-07T00:44:05.067Z,11.87
2022-10-07T00:45:05.080Z,11.97
2022-10-07T00:46:05.441Z,11.91
2022-10-07T00:47:05.362Z,11.88
2022-10-07T00:48:05.558Z,11.87
2022-10-07T00:49:05.726Z,11.84
2022-10-07T00:50:05.788Z,11.88
2022-10-07T00:51:05.967Z,11.91
2022-10-07T00:52:06.095Z,11.91
2022-10-07T00:53:06.213Z,11.87
2022-10-07T00:54:06.417Z,11.91
2022-10-07T00:55:06.527Z,11.84
2022-10-07T00:56:06.631Z,11.90
2022-10-07T00:57:06.690Z,11.84
2022-10-07T00:58:06.853Z,11.83
2022-10-07T00:59:07.011Z,11.81
2022-10-07T01:00:07.063Z,11.84
2022-10-07T01:01:07.338Z,11.84
2022-10-07T01:02:07.381Z,11.80
2022-10-07T01:03:07.429Z,11.72
2022-10-07T01:04:07.601Z,11.77
2022-10-07T01:05:07.689Z,11.87
2022-10-07T01:06:07.853Z,11.83
2022-10-07T01:07:08.014Z,11.75
2022-10-07T01:08:08.075Z,11.73
2022-10-07T01:09:08.472Z,11.66
2022-10-07T01:10:08.336Z,11.72
2022-10-07T01:11:08.440Z,11.75
2022-10-07T01:12:08.647Z,11.69
2022-10-07T01:13:08.705Z,11.66
2022-10-07T01:14:08.911Z,11.65
2022-10-07T01:15:08.929Z,11.70
2022-10-07T01:16:09.053Z,11.66
2022-10-07T01:17:09.419Z,11.66
2022-10-07T01:18:09.348Z,11.68
2022-10-07T01:19:09.561Z,11.62
2022-10-07T01:20:09.669Z,11.68
2022-10-07T01:21:09.857Z,11.68
2022-10-07T01:22:10.040Z,11.60
2022-10-07T01:23:10.102Z,11.65
2022-10-07T01:24:10.139Z,11.63
2022-10-07T01:25:10.285Z,11.62
2022-10-07T01:26:10.370Z,11.63
2022-10-07T01:27:10.497Z,11.69
2022-10-07T01:28:10.921Z,11.65
2022-10-07T01:29:10.766Z,11.65
2022-10-07T01:30:10.903Z,11.62
2022-10-07T01:31:11.145Z,11.63
2022-10-07T01:32:11.261Z,11.65
2022-10-07T01:33:11.603Z,11.63
2022-10-07T01:34:11.478Z,11.66
2022-10-07T01:35:11.720Z,11.63
2022-10-07T01:36:11.931Z,11.54
2022-10-07T01:37:12.042Z,11.55
2022-10-07T01:38:12.251Z,11.57
2022-10-07T01:39:12.260Z,11.51
2022-10-07T01:40:12.383Z,11.55
2022-10-07T01:41:12.428Z,11.54
2022-10-07T01:42:12.572Z,11.51
2022-10-07T01:43:12.769Z,11.59
2022-10-07T01:44:12.958Z,11.54
2022-10-07T01:45:12.997Z,11.50
2022-10-07T01:46:13.161Z,11.43
2022-10-07T01:47:13.228Z,11.54
2022-10-07T01:48:13.487Z,11.47
2022-10-07T01:49:13.404Z,11.48
2022-10-07T01:50:13.564Z,11.48
2022-10-07T01:51:13.829Z,11.48
2022-10-07T01:52:13.769Z,11.51
2022-10-07T01:53:13.895Z,11.48
2022-10-07T01:54:14.018Z,11.41
2022-10-07T01:55:14.213Z,11.48
2022-10-07T01:56:14.335Z,11.43
2022-10-07T01:57:14.397Z,11.48
2022-10-07T01:58:14.568Z,11.41
2022-10-07T01:59:14.705Z,11.36
2022-10-07T02:00:14.863Z,11.33
2022-10-07T02:01:15.089Z,11.37
2022-10-07T02:02:15.080Z,11.37
2022-10-07T02:03:15.245Z,11.37
2022-10-07T02:04:15.239Z,11.36
2022-10-07T02:05:15.364Z,11.33
2022-10-07T02:06:15.571Z,11.40
2022-10-07T02:07:15.730Z,11.37
2022-10-07T02:08:15.740Z,11.30
2022-10-07T02:09:15.872Z,11.40
2022-10-07T02:10:15.987Z,11.33
2022-10-07T02:11:16.193Z,11.33
2022-10-07T02:12:16.402Z,11.36
2022-10-07T02:13:16.388Z,11.30
2022-10-07T02:14:16.484Z,11.43
2022-10-07T02:15:16.690Z,11.25
2022-10-07T02:16:16.838Z,11.29
2022-10-07T02:17:16.938Z,11.26
2022-10-07T02:18:17.015Z,11.23
2022-10-07T02:19:17.142Z,11.30
2022-10-07T02:20:17.361Z,11.26
2022-10-07T02:21:17.414Z,11.29
2022-10-07T02:22:17.756Z,11.29
2022-10-07T02:23:17.658Z,11.26
2022-10-07T02:24:17.866Z,11.29
2022-10-07T02:25:17.929Z,11.26
2022-10-07T02:26:18.140Z,11.26
2022-10-07T02:27:18.329Z,11.29
2022-10-07T02:28:18.371Z,11.26
2022-10-07T02:29:18.453Z,11.29
2022-10-07T02:30:18.574Z,11.25
2022-10-07T02:31:18.814Z,11.25
2022-10-07T02:32:18.938Z,11.23
2022-10-07T02:33:18.988Z,11.25
2022-10-07T02:34:20.339Z,11.19
2022-10-07T02:35:19.215Z,11.26
2022-10-07T02:36:19.357Z,11.18
2022-10-07T02:37:19.634Z,11.17
2022-10-07T02:38:19.594Z,11.29
2022-10-07T02:39:19.732Z,11.23
2022-10-07T02:40:19.940Z,11.18
2022-10-07T02:41:20.062Z,11.23
2022-10-07T02:42:20.477Z,11.19
2022-10-07T02:43:20.282Z,11.27
2022-10-07T02:44:20.448Z,11.22
2022-10-07T02:45:25.886Z,11.25
2022-10-07T02:46:20.756Z,11.25
2022-10-07T02:47:20.824Z,11.18
2022-10-07T02:48:20.867Z,11.22
2022-10-07T02:49:20.994Z,11.15
2022-10-07T02:50:21.108Z,11.15
2022-10-07T02:51:21.541Z,11.18
2022-10-07T02:52:21.425Z,11.23
2022-10-07T02:53:21.760Z,11.26
2022-10-07T02:54:21.681Z,11.22
2022-10-07T02:55:21.835Z,11.22
2022-10-07T02:56:21.973Z,11.19
2022-10-07T02:57:22.106Z,11.12
2022-10-07T02:58:22.308Z,11.17
2022-10-07T02:59:22.396Z,11.10
2022-10-07T03:00:22.613Z,11.19
2022-10-07T03:01:22.872Z,11.07
2022-10-07T03:02:22.844Z,11.19
2022-10-07T03:03:23.107Z,11.19
2022-10-07T03:04:23.193Z,11.07
2022-10-07T03:05:24.571Z,11.10
2022-10-07T03:06:23.454Z,11.15
2022-10-07T03:07:23.621Z,11.07
2022-10-07T03:08:24.092Z,11.14
2022-10-07T03:09:23.929Z,11.12
2022-10-07T03:10:24.107Z,11.07
2022-10-07T03:11:24.250Z,11.10
2022-10-07T03:12:24.399Z,11.08
2022-10-07T03:13:24.788Z,11.08
2022-10-07T03:14:24.667Z,11.00
2022-10-07T03:15:24.806Z,11.10
2022-10-07T03:16:25.085Z,11.10
2022-10-07T03:17:25.011Z,11.07
2022-10-07T03:18:25.259Z,11.04
2022-10-07T03:19:25.330Z,11.04
2022-10-07T03:20:25.371Z,11.04
2022-10-07T03:21:25.871Z,11.02
2022-10-07T03:22:25.674Z,11.02
2022-10-07T03:23:25.735Z,11.02
2022-10-07T03:24:25.892Z,10.99
2022-10-07T03:25:26.081Z,11.00
2022-10-07T03:26:26.264Z,10.99
2022-10-07T03:27:26.322Z,10.96
2022-10-07T03:28:26.490Z,10.99
2022-10-07T03:29:26.525Z,10.96
2022-10-07T03:30:26.627Z,11.04
2022-10-07T03:31:26.913Z,10.99
2022-10-07T03:32:26.962Z,10.99
2022-10-07T03:33:27.040Z,11.05
2022-10-07T03:34:27.150Z,10.99
2022-10-07T03:35:27.205Z,10.99
2022-10-07T03:36:27.371Z,10.96
2022-10-07T03:37:27.478Z,10.93
2022-10-07T03:38:27.677Z,10.94
2022-10-07T03:39:27.673Z,10.97
2022-10-07T03:40:27.799Z,10.93
2022-10-07T03:41:27.950Z,10.96
2022-10-07T03:42:28.033Z,10.96
2022-10-07T03:43:28.140Z,10.93
2022-10-07T03:44:28.336Z,10.97
2022-10-07T03:45:28.440Z,10.87
2022-10-07T03:46:28.588Z,10.94
2022-10-07T03:47:28.650Z,10.92
2022-10-07T03:48:28.753Z,10.86
2022-10-07T03:49:28.871Z,10.86
2022-10-07T03:50:28.998Z,10.90
2022-10-07T03:51:29.231Z,10.89
2022-10-07T03:52:29.162Z,10.87
2022-10-07T03:53:29.271Z,10.86
2022-10-07T03:54:29.397Z,10.94
2022-10-07T03:55:29.588Z,10.94
2022-10-07T03:56:29.747Z,10.90
2022-10-07T03:57:29.909Z,10.84
2022-10-07T03:58:29.888Z,10.94
2022-10-07T03:59:29.995Z,10.86
2022-10-07T04:00:30.126Z,10.82
2022-10-07T04:01:30.338Z,10.94
2022-10-07T04:02:30.616Z,10.84
2022-10-07T04:03:30.527Z,10.94
2022-10-07T04:04:30.658Z,10.87
2022-10-07T04:05:30.795Z,10.82
2022-10-07T04:06:30.915Z,10.79
2022-10-07T04:07:31.076Z,10.90
2022-10-07T04:08:32.507Z,10.86
2022-10-07T04:09:31.283Z,10.90
2022-10-07T04:10:31.420Z,10.86
2022-10-07T04:11:31.537Z,10.89
2022-10-07T04:12:31.686Z,10.84
2022-10-07T04:13:31.819Z,10.78
2022-10-07T04:14:31.951Z,10.78
2022-10-07T04:15:32.169Z,10.81
2022-10-07T04:16:37.141Z,10.82
2022-10-07T04:17:32.454Z,10.78
2022-10-07T04:18:32.536Z,10.79
2022-10-07T04:19:32.687Z,10.78
2022-10-07T04:20:32.838Z,10.74
2022-10-07T04:21:32.981Z,10.78
2022-10-07T04:22:33.168Z,10.69
2022-10-07T04:23:33.349Z,10.78
2022-10-07T04:24:33.468Z,10.78
2022-10-07T04:25:33.571Z,10.78
2022-10-07T04:26:33.723Z,10.75
2022-10-07T04:27:51.069Z,10.71
2022-10-07T04:28:34.137Z,10.76
2022-10-07T04:29:38.874Z,10.78
2022-10-07T04:30:34.297Z,10.71
2022-10-07T04:31:34.556Z,10.75
2022-10-07T04:32:34.641Z,10.75
2022-10-07T04:33:34.748Z,10.74
2022-10-07T04:34:34.925Z,10.74
2022-10-07T04:35:35.087Z,10.75
2022-10-07T04:36:35.151Z,10.72
2022-10-07T04:37:35.279Z,10.75
2022-10-07T04:38:35.396Z,10.61
2022-10-07T04:39:59.266Z,10.67
2022-10-07T04:40:35.789Z,10.69
2022-10-07T04:41:35.758Z,10.59
2022-10-07T04:42:35.875Z,10.64
2022-10-07T04:43:35.988Z,10.59
2022-10-07T04:44:36.107Z,10.60
2022-10-07T04:45:36.346Z,10.61
2022-10-07T04:46:36.470Z,10.67
2022-10-07T04:47:36.430Z,10.56
2022-10-07T04:48:36.715Z,10.59
2022-10-07T04:49:36.714Z,10.63
2022-10-07T04:50:36.883Z,10.67
2022-10-07T04:51:37.005Z,10.71
2022-10-07T04:52:37.144Z,10.60
2022-10-07T04:53:37.321Z,10.60
2022-10-07T04:54:37.458Z,10.54
2022-10-07T04:55:37.575Z,10.60
2022-10-07T04:56:37.731Z,10.59
2022-10-07T04:57:37.746Z,10.56
2022-10-07T04:58:37.904Z,10.57
2022-10-07T04:59:42.468Z,10.56
2022-10-07T05:00:38.259Z,10.57
2022-10-07T05:01:38.319Z,10.49
2022-10-07T05:02:38.355Z,10.60
2022-10-07T05:03:38.483Z,10.61
2022-10-07T05:04:38.826Z,10.40
2022-10-07T05:05:38.740Z,10.35
2022-10-07T05:06:38.850Z,10.40
2022-10-07T05:07:38.981Z,10.41
2022-10-07T05:08:39.111Z,10.49
2022-10-07T05:09:39.320Z,10.46
2022-10-07T05:10:39.335Z,10.46
2022-10-07T05:11:39.437Z,10.40
2022-10-07T05:12:39.570Z,10.34
2022-10-07T05:13:39.755Z,10.48
2022-10-07T05:14:40.035Z,10.48
2022-10-07T05:15:39.923Z,10.44
2022-10-07T05:16:40.173Z,10.56
2022-10-07T05:17:40.193Z,10.38
2022-10-07T05:18:40.356Z,10.40
2022-10-07T05:19:40.512Z,10.37
2022-10-07T05:20:40.630Z,10.37
2022-10-07T05:21:40.726Z,10.35
2022-10-07T05:22:40.846Z,10.34
2022-10-07T05:23:40.930Z,10.46
2022-10-07T05:24:41.141Z,10.37
2022-10-07T05:25:41.233Z,10.34
2022-10-07T05:26:41.302Z,10.34
2022-10-07T05:27:41.430Z,10.40
2022-10-07T05:28:41.763Z,10.37
2022-10-07T05:29:41.760Z,10.40
2022-10-07T05:30:42.098Z,10.40
2022-10-07T05:31:42.215Z,10.34
2022-10-07T05:32:42.267Z,10.37
2022-10-07T05:33:42.347Z,10.34
2022-10-07T05:34:42.494Z,10.37
2022-10-07T05:35:42.761Z,10.31
2022-10-07T05:36:42.886Z,10.28
2022-10-07T05:37:45.447Z,10.34
2022-10-07T05:38:43.180Z,10.37
2022-10-07T05:39:43.316Z,10.31
2022-10-07T05:40:43.517Z,10.31
2022-10-07T05:41:45.913Z,10.31
2022-10-07T05:42:43.774Z,10.37
2022-10-07T05:43:44.131Z,10.37
2022-10-07T05:44:44.092Z,10.41
2022-10-07T05:45:44.312Z,10.37
2022-10-07T05:46:44.457Z,10.40
2022-10-07T05:47:44.926Z,10.34
2022-10-07T05:48:44.849Z,10.34
2022-10-07T05:49:44.765Z,10.37
2022-10-07T05:50:44.977Z,10.40
2022-10-07T05:51:44.993Z,10.34
2022-10-07T05:52:45.311Z,10.40
2022-10-07T05:53:45.297Z,10.34
2022-10-07T05:54:45.374Z,10.38
2022-10-07T05:55:45.479Z,10.40
2022-10-07T05:56:45.645Z,10.33
2022-10-07T05:57:48.893Z,10.44
2022-10-07T05:58:45.841Z,10.34
2022-10-07T05:59:46.089Z,10.38
2022-10-07T06:00:46.095Z,10.34
2022-10-07T06:01:46.256Z,10.37
2022-10-07T06:02:46.427Z,10.38
2022-10-07T06:03:46.475Z,10.37
2022-10-07T06:04:46.737Z,10.38
2022-10-07T06:05:46.669Z,10.35
2022-10-07T06:06:46.834Z,10.31
2022-10-07T06:07:47.550Z,10.46
2022-10-07T06:08:49.927Z,10.46
2022-10-07T06:09:47.245Z,10.54
2022-10-07T06:10:47.420Z,10.51
2022-10-07T06:11:47.739Z,10.44
2022-10-07T06:12:47.676Z,10.46
2022-10-07T06:13:47.879Z,10.44
2022-10-07T06:14:48.204Z,10.48
2022-10-07T06:15:48.172Z,10.46
2022-10-07T06:16:48.331Z,10.57
2022-10-07T06:17:48.968Z,10.61
2022-10-07T06:18:48.551Z,10.60
2022-10-07T06:19:48.839Z,10.56
2022-10-07T06:20:48.910Z,10.59
2022-10-07T06:21:49.034Z,10.69
2022-10-07T06:22:49.352Z,10.57
2022-10-07T06:23:49.455Z,10.61
2022-10-07T06:24:49.437Z,10.63
2022-10-07T06:25:49.596Z,10.64
2022-10-07T06:26:49.936Z,10.61
2022-10-07T06:27:54.111Z,10.59
2022-10-07T06:28:50.155Z,10.63
2022-10-07T06:29:50.296Z,10.64
2022-10-07T06:30:50.473Z,10.61
2022-10-07T06:31:50.688Z,10.78
2022-10-07T06:32:50.697Z,10.82
2022-10-07T06:33:50.928Z,10.96
2022-10-07T06:34:51.145Z,10.94
2022-10-07T06:35:51.179Z,10.99
2022-10-07T06:36:51.328Z,11.02
2022-10-07T06:37:51.413Z,11.11
2022-10-07T06:38:51.545Z,11.12
2022-10-07T06:39:54.291Z,11.05
2022-10-07T06:40:52.072Z,11.02
2022-10-07T06:41:51.981Z,11.02
2022-10-07T06:42:52.134Z,11.07
2022-10-07T06:43:52.264Z,11.11
2022-10-07T06:44:52.321Z,11.04
2022-10-07T06:45:52.505Z,11.00
2022-10-07T06:46:52.893Z,11.08
2022-10-07T06:47:52.798Z,11.05
2022-10-07T06:48:52.879Z,11.19
2022-10-07T06:49:52.965Z,11.23
2022-10-07T06:50:53.130Z,11.26
2022-10-07T06:51:53.285Z,11.26
2022-10-07T06:52:53.357Z,11.29
2022-10-07T06:53:53.501Z,11.41
2022-10-07T06:54:53.556Z,11.43
2022-10-07T06:55:53.681Z,11.40
2022-10-07T06:56:53.871Z,11.27
2022-10-07T06:57:53.971Z,11.43
2022-10-07T06:58:54.100Z,11.40
2022-10-07T06:59:57.027Z,11.40
2022-10-07T07:00:54.523Z,11.43
2022-10-07T07:01:54.523Z,11.45
2022-10-07T07:02:54.588Z,11.48
2022-10-07T07:03:56.633Z,11.50
2022-10-07T07:04:57.692Z,11.51
2022-10-07T07:05:55.265Z,11.60
2022-10-07T07:06:55.217Z,11.62
2022-10-07T07:07:55.290Z,11.68
2022-10-07T07:08:55.369Z,11.69
2022-10-07T07:09:55.558Z,11.81
2022-10-07T07:10:55.723Z,11.80
2022-10-07T07:11:56.564Z,11.84
2022-10-07T07:12:55.977Z,11.81
2022-10-07T07:13:56.050Z,11.84
2022-10-07T07:14:56.160Z,11.84
2022-10-07T07:15:56.322Z,11.90
2022-10-07T07:16:56.595Z,11.88
2022-10-07T07:17:56.510Z,11.90
2022-10-07T07:18:56.634Z,11.84
2022-10-07T07:19:56.860Z,11.86
2022-10-07T07:20:56.966Z,11.87
2022-10-07T07:21:57.191Z,11.91
2022-10-07T07:22:57.137Z,11.91
2022-10-07T07:23:57.235Z,12.03
2022-10-07T07:24:57.355Z,12.09
2022-10-07T07:25:57.524Z,12.04
2022-10-07T07:26:57.643Z,12.03
2022-10-07T07:27:58.217Z,12.09
2022-10-07T07:28:57.973Z,12.07
2022-10-07T07:29:58.075Z,12.04
2022-10-07T07:30:58.191Z,12.06
2022-10-07T07:31:58.427Z,12.17
2022-10-07T07:32:58.448Z,12.17
2022-10-07T07:33:58.649Z,12.17
2022-10-07T07:34:58.711Z,12.21
2022-10-07T07:35:58.972Z,12.24
2022-10-07T07:36:59.077Z,12.24
2022-10-07T07:37:59.270Z,12.27
2022-10-07T07:38:59.296Z,12.22
2022-10-07T07:39:59.496Z,12.25
2022-10-07T07:40:59.616Z,12.31
2022-10-07T07:41:59.828Z,12.35
2022-10-07T07:42:59.930Z,12.39
2022-10-07T07:44:00.024Z,12.37
2022-10-07T07:45:00.116Z,12.42
2022-10-07T07:46:00.273Z,12.49
2022-10-07T07:47:00.386Z,12.40
2022-10-07T07:48:00.503Z,12.49
2022-10-07T07:49:00.848Z,12.53
2022-10-07T07:50:00.739Z,12.55
2022-10-07T07:51:00.913Z,12.61
2022-10-07T07:52:00.988Z,12.61
2022-10-07T07:53:01.190Z,12.65
2022-10-07T07:54:01.538Z,12.62
2022-10-07T07:55:01.558Z,12.72
2022-10-07T07:56:01.666Z,12.73
2022-10-07T07:57:01.740Z,12.73
2022-10-07T07:58:01.985Z,12.68
2022-10-07T07:59:02.426Z,12.70
2022-10-07T08:00:02.302Z,12.76
2022-10-07T08:01:02.621Z,12.76
2022-10-07T08:02:02.530Z,12.76
2022-10-07T08:03:02.720Z,12.83
2022-10-07T08:04:02.846Z,12.86
2022-10-07T08:05:03.011Z,12.83
2022-10-07T08:06:03.226Z,12.94
2022-10-07T08:07:03.220Z,12.97
2022-10-07T08:08:03.362Z,12.95
2022-10-07T08:09:03.719Z,13.00
2022-10-07T08:10:03.706Z,12.98
2022-10-07T08:11:03.836Z,13.04
2022-10-07T08:12:04.440Z,13.01
2022-10-07T08:13:04.135Z,13.18
2022-10-07T08:14:04.246Z,13.13
2022-10-07T08:15:04.347Z,13.12
2022-10-07T08:16:04.608Z,13.12
2022-10-07T08:17:04.732Z,13.05
2022-10-07T08:18:04.786Z,13.15
2022-10-07T08:19:05.000Z,13.18
2022-10-07T08:20:05.099Z,13.23
2022-10-07T08:21:05.155Z,13.19
2022-10-07T08:22:05.499Z,13.28
2022-10-07T08:23:05.497Z,13.28
2022-10-07T08:24:05.632Z,13.20
2022-10-07T08:25:05.757Z,13.37
2022-10-07T08:26:05.889Z,13.39
2022-10-07T08:27:06.128Z,13.35
2022-10-07T08:28:06.198Z,13.37
2022-10-07T08:29:06.294Z,13.37
2022-10-07T08:30:06.376Z,13.39
2022-10-07T08:31:06.561Z,13.41
2022-10-07T08:32:06.650Z,13.47
2022-10-07T08:33:06.715Z,13.53
2022-10-07T08:34:06.892Z,13.52
2022-10-07T08:35:07.055Z,13.59
2022-10-07T08:36:07.064Z,13.62
2022-10-07T08:37:07.272Z,13.65
2022-10-07T08:38:09.607Z,13.65
2022-10-07T08:39:07.443Z,13.68
2022-10-07T08:40:07.650Z,13.70
2022-10-07T08:41:07.766Z,13.74
2022-10-07T08:42:07.946Z,13.81
2022-10-07T08:43:08.057Z,13.70
2022-10-07T08:44:08.284Z,13.85
2022-10-07T08:45:08.279Z,13.83
2022-10-07T08:46:08.471Z,13.87
2022-10-07T08:47:08.553Z,13.79
2022-10-07T08:48:08.744Z,13.87
2022-10-07T08:49:08.994Z,14.00
2022-10-07T08:50:09.002Z,14.00
2022-10-07T08:51:09.365Z,14.00
2022-10-07T08:52:09.233Z,14.07
2022-10-07T08:53:09.379Z,14.04
2022-10-07T08:54:09.480Z,14.08
2022-10-07T08:55:09.561Z,14.14
2022-10-07T08:56:09.767Z,14.17
2022-10-07T08:57:09.840Z,14.12
2022-10-07T08:58:10.052Z,14.20
2022-10-07T08:59:10.069Z,14.25
2022-10-07T09:00:10.310Z,14.26
2022-10-07T09:01:10.342Z,14.26
2022-10-07T09:02:10.303Z,14.23
2022-10-07T09:03:10.578Z,14.20
2022-10-07T09:04:10.532Z,14.26
2022-10-07T09:05:10.717Z,14.28
2022-10-07T09:06:10.759Z,14.37
2022-10-07T09:07:10.910Z,14.37
2022-10-07T09:08:11.025Z,14.32
2022-10-07T09:09:11.287Z,14.40
2022-10-07T09:10:11.209Z,14.33
2022-10-07T09:11:11.449Z,14.51
2022-10-07T09:12:11.457Z,14.47
2022-10-07T09:13:11.614Z,14.55
2022-10-07T09:14:11.677Z,14.54
2022-10-07T09:15:11.733Z,14.58
2022-10-07T09:16:12.013Z,14.69
2022-10-07T09:17:11.900Z,14.69
2022-10-07T09:18:12.063Z,14.77
2022-10-07T09:19:12.164Z,14.81
2022-10-07T09:20:12.210Z,14.85
2022-10-07T09:21:12.352Z,14.96
2022-10-07T09:22:12.447Z,14.96
2022-10-07T09:23:12.590Z,14.97
2022-10-07T09:24:12.624Z,14.99
2022-10-07T09:25:12.795Z,15.02
2022-10-07T09:26:12.989Z,15.00
2022-10-07T09:27:13.062Z,15.06
2022-10-07T09:28:13.147Z,15.11
2022-10-07T09:29:13.296Z,15.14
2022-10-07T09:30:13.265Z,15.09
2022-10-07T09:31:13.541Z,15.18
2022-10-07T09:32:13.480Z,15.10
2022-10-07T09:33:13.588Z,15.19
2022-10-07T09:34:13.778Z,15.24
2022-10-07T09:35:13.921Z,15.22
2022-10-07T09:36:14.029Z,15.21
2022-10-07T09:37:14.012Z,15.25
2022-10-07T09:38:14.248Z,15.29
2022-10-07T09:39:14.266Z,15.27
2022-10-07T09:40:14.459Z,15.37
2022-10-07T09:41:14.569Z,15.44
2022-10-07T09:42:14.611Z,15.40
2022-10-07T09:43:14.793Z,15.47
2022-10-07T09:44:14.832Z,15.46
2022-10-07T09:45:14.971Z,15.47
2022-10-07T09:46:15.265Z,15.47
2022-10-07T09:47:15.234Z,15.51
2022-10-07T09:48:15.444Z,15.47
2022-10-07T09:49:15.428Z,15.57
2022-10-07T09:50:15.506Z,15.47
2022-10-07T09:51:15.741Z,15.52
2022-10-07T09:52:15.765Z,15.52
2022-10-07T09:53:15.851Z,15.57
2022-10-07T09:54:15.962Z,15.65
2022-10-07T09:55:16.027Z,15.67
2022-10-07T09:56:16.169Z,15.59
2022-10-07T09:57:18.943Z,15.67
2022-10-07T09:58:16.433Z,15.62
2022-10-07T09:59:16.590Z,15.59
2022-10-07T10:00:18.008Z,15.67
2022-10-07T10:01:16.865Z,15.70
2022-10-07T10:02:17.071Z,15.72
2022-10-07T10:03:17.142Z,15.70
2022-10-07T10:04:17.131Z,15.79
2022-10-07T10:05:17.250Z,15.80
2022-10-07T10:06:17.410Z,15.90
2022-10-07T10:07:17.678Z,15.77
2022-10-07T10:08:17.733Z,15.95
2022-10-07T10:09:20.210Z,15.92
2022-10-07T10:10:17.871Z,15.88
2022-10-07T10:11:18.063Z,15.90
2022-10-07T10:12:18.227Z,15.95
2022-10-07T10:13:18.280Z,15.92
2022-10-07T10:14:18.362Z,16.08
2022-10-07T10:15:18.482Z,16.00
2022-10-07T10:16:18.672Z,16.02
2022-10-07T10:17:18.795Z,16.01
2022-10-07T10:18:18.826Z,16.04
2022-10-07T10:19:18.935Z,16.13
2022-10-07T10:20:19.112Z,16.09
2022-10-07T10:21:19.103Z,16.16
2022-10-07T10:22:19.160Z,16.05
2022-10-07T10:23:19.227Z,16.13
2022-10-07T10:24:19.354Z,16.21
2022-10-07T10:25:19.471Z,16.17
2022-10-07T10:26:19.578Z,16.23
2022-10-07T10:27:19.672Z,16.26
2022-10-07T10:28:19.868Z,16.29
2022-10-07T10:29:19.873Z,16.29
2022-10-07T10:30:19.905Z,16.29
2022-10-07T10:31:20.119Z,16.26
2022-10-07T10:32:20.136Z,16.39
2022-10-07T10:33:20.273Z,16.41
2022-10-07T10:34:20.364Z,16.35
2022-10-07T10:35:20.539Z,16.41
2022-10-07T10:36:20.556Z,16.36
2022-10-07T10:37:20.746Z,16.46
2022-10-07T10:38:20.779Z,16.43
2022-10-07T10:39:20.924Z,16.38
2022-10-07T10:40:21.040Z,16.32
2022-10-07T10:41:21.089Z,16.43
2022-10-07T10:42:21.469Z,16.43
2022-10-07T10:43:21.261Z,16.41
2022-10-07T10:44:21.382Z,16.41
2022-10-07T10:45:21.572Z,16.43
2022-10-07T10:46:21.687Z,16.42
2022-10-07T10:47:21.816Z,16.42
2022-10-07T10:48:21.766Z,16.38
2022-10-07T10:49:21.812Z,16.33
2022-10-07T10:50:21.872Z,16.32
2022-10-07T10:51:22.256Z,16.43
2022-10-07T10:52:22.277Z,16.51
2022-10-07T10:53:22.216Z,16.47
2022-10-07T10:54:22.390Z,16.43
2022-10-07T10:55:22.327Z,16.47
2022-10-07T10:56:22.578Z,16.43
2022-10-07T10:57:22.578Z,16.54
2022-10-07T10:58:22.608Z,16.60
2022-10-07T10:59:22.718Z,16.60
2022-10-07T11:00:22.873Z,16.60
2022-10-07T11:01:23.038Z,16.72
2022-10-07T11:02:23.101Z,16.87
2022-10-07T11:03:23.251Z,16.90
2022-10-07T11:04:23.135Z,16.91
2022-10-07T11:05:23.305Z,16.94
2022-10-07T11:06:23.302Z,17.08
2022-10-07T11:07:23.573Z,17.06
2022-10-07T11:08:27.213Z,17.15
2022-10-07T11:09:27.412Z,17.22
2022-10-07T11:10:23.692Z,17.30
2022-10-07T11:11:23.721Z,17.33
2022-10-07T11:12:23.914Z,17.31
2022-10-07T11:13:23.881Z,17.26
2022-10-07T11:14:23.951Z,17.26
2022-10-07T11:15:24.139Z,17.29
2022-10-07T11:16:24.147Z,17.27
2022-10-07T11:17:24.279Z,17.33
2022-10-07T11:18:24.313Z,17.30
2022-10-07T11:19:24.442Z,17.31
2022-10-07T11:20:24.580Z,17.27
2022-10-07T11:21:24.538Z,17.22
2022-10-07T11:22:24.610Z,17.24
2022-10-07T11:23:24.703Z,17.26
2022-10-07T11:24:24.814Z,17.20
2022-10-07T11:25:24.818Z,17.26
2022-10-07T11:26:24.977Z,17.20
2022-10-07T11:27:25.038Z,17.27
2022-10-07T11:28:25.209Z,17.29
2022-10-07T11:29:25.210Z,17.26
2022-10-07T11:30:25.254Z,17.26
2022-10-07T11:31:25.653Z,17.30
2022-10-07T11:32:25.551Z,17.22
2022-10-07T11:33:25.641Z,17.30
2022-10-07T11:34:25.715Z,17.26
2022-10-07T11:35:25.912Z,17.27
2022-10-07T11:36:25.911Z,17.29
2022-10-07T11:37:25.975Z,17.27
2022-10-07T11:38:26.191Z,17.26
2022-10-07T11:39:26.139Z,17.29
2022-10-07T11:40:29.026Z,17.23
2022-10-07T11:41:26.333Z,17.29
2022-10-07T11:42:26.452Z,17.19
2022-10-07T11:43:26.653Z,17.29
2022-10-07T11:44:26.586Z,17.27
2022-10-07T11:45:26.699Z,17.22
2022-10-07T11:46:26.908Z,17.23
2022-10-07T11:47:26.893Z,17.23
2022-10-07T11:48:27.059Z,17.26
2022-10-07T11:49:27.092Z,17.36
2022-10-07T11:50:27.236Z,17.29
2022-10-07T11:51:27.386Z,17.30
2022-10-07T11:52:27.365Z,17.33
2022-10-07T11:53:27.546Z,17.36
2022-10-07T11:54:27.591Z,17.41
2022-10-07T11:55:29.121Z,17.36
2022-10-07T11:56:27.784Z,17.36
2022-10-07T11:57:27.796Z,17.41
2022-10-07T11:58:28.016Z,17.39
2022-10-07T11:59:28.198Z,17.36
2022-10-07T12:00:28.079Z,17.41
2022-10-07T12:01:28.244Z,17.39
2022-10-07T12:02:28.500Z,17.54
2022-10-07T12:03:28.589Z,17.59
2022-10-07T12:04:28.571Z,17.48
2022-10-07T12:05:28.646Z,17.65
2022-10-07T12:06:28.744Z,17.72
2022-10-07T12:07:28.734Z,17.63
2022-10-07T12:08:31.977Z,17.59
2022-10-07T12:09:28.912Z,17.65
2022-10-07T12:10:28.965Z,17.63
2022-10-07T12:11:29.032Z,17.65
2022-10-07T12:12:29.122Z,17.67
2022-10-07T12:13:29.149Z,17.60
2022-10-07T12:14:29.255Z,17.64
2022-10-07T12:15:29.322Z,17.63
2022-10-07T12:16:29.357Z,17.64
2022-10-07T12:17:29.473Z,17.57
2022-10-07T12:18:29.479Z,17.63
2022-10-07T12:19:29.595Z,17.78
2022-10-07T12:20:29.623Z,17.70
2022-10-07T12:21:29.704Z,17.82
2022-10-07T12:22:29.822Z,17.79
2022-10-07T12:23:29.952Z,17.82
2022-10-07T12:24:30.039Z,17.87
2022-10-07T12:25:30.100Z,17.90
2022-10-07T12:26:30.113Z,17.82
2022-10-07T12:27:30.241Z,17.90
2022-10-07T12:28:30.443Z,17.89
2022-10-07T12:29:30.282Z,17.85
2022-10-07T12:30:30.358Z,17.90
2022-10-07T12:31:30.477Z,17.86
2022-10-07T12:32:30.606Z,17.89
2022-10-07T12:33:30.595Z,17.90
2022-10-07T12:34:30.726Z,17.86
2022-10-07T12:35:30.702Z,17.86
2022-10-07T12:36:30.834Z,17.87
2022-10-07T12:37:30.912Z,17.87
2022-10-07T12:38:30.963Z,17.80
2022-10-07T12:39:31.229Z,17.78
2022-10-07T12:40:31.096Z,17.79
2022-10-07T12:41:31.214Z,17.82
2022-10-07T12:42:31.274Z,17.83
2022-10-07T12:43:31.363Z,17.78
2022-10-07T12:44:31.537Z,17.80
2022-10-07T12:45:31.658Z,17.86
2022-10-07T12:46:31.830Z,17.89
2022-10-07T12:47:31.812Z,17.79
2022-10-07T12:48:31.819Z,17.82
2022-10-07T12:49:32.047Z,17.78
2022-10-07T12:50:32.021Z,17.80
2022-10-07T12:51:32.181Z,17.83
2022-10-07T12:52:32.209Z,17.86
2022-10-07T12:53:32.308Z,17.82
2022-10-07T12:54:32.417Z,17.78